createdAt,value
2023-04-29T00:01:27.431Z,8.10
2023-04-29T00:03:56.132Z,9.83
2023-04-29T00:06:29.193Z,9.40
2023-04-29T00:09:09.783Z,7.50
2023-04-29T00:11:40.242Z,11.00
2023-04-29T00:14:08.066Z,8.37
2023-04-29T00:16:35.902Z,8.40
2023-04-29T00:19:25.099Z,6.93
2023-04-29T00:21:58.155Z,7.40
2023-04-29T00:24:35.488Z,7.47
2023-04-29T00:27:04.066Z,8.60
2023-04-29T00:29:32.151Z,9.40
2023-04-29T00:32:03.385Z,7.37
2023-04-29T00:34:33.819Z,9.57
2023-04-29T00:37:13.783Z,7.60
2023-04-29T00:39:48.109Z,7.53
2023-04-29T00:42:25.187Z,8.90
2023-04-29T00:44:58.140Z,8.70
2023-04-29T00:47:36.136Z,7.30
2023-04-29T00:50:17.255Z,7.00
2023-04-29T00:52:54.523Z,7.40
2023-04-29T00:55:53.934Z,6.87
2023-04-29T00:58:42.909Z,9.90
2023-04-29T01:01:23.349Z,6.93
2023-04-29T01:04:03.650Z,7.83
2023-04-29T01:07:02.646Z,7.20
2023-04-29T01:09:49.127Z,11.17
2023-04-29T01:12:47.853Z,8.37
2023-04-29T01:15:41.618Z,9.30
2023-04-29T01:18:31.025Z,8.90
2023-04-29T01:21:00.411Z,9.07
2023-04-29T01:23:36.086Z,9.40
2023-04-29T01:26:07.121Z,9.53
2023-04-29T01:29:29.752Z,12.53
2023-04-29T01:32:21.410Z,13.17
2023-04-29T01:35:34.241Z,11.40
2023-04-29T01:38:55.564Z,12.87
2023-04-29T01:41:36.967Z,12.30
2023-04-29T01:44:09.317Z,12.57
2023-04-29T01:46:37.534Z,12.47
2023-04-29T01:49:05.216Z,12.87
2023-04-29T01:51:34.554Z,12.83
2023-04-29T01:54:10.520Z,13.50
2023-04-29T01:56:38.277Z,12.83
2023-04-29T01:59:09.082Z,13.50
2023-04-29T02:01:40.458Z,14.57
2023-04-29T02:04:13.378Z,13.10
2023-04-29T02:06:50.242Z,14.33
2023-04-29T02:09:23.309Z,13.10
2023-04-29T02:11:57.966Z,14.60
2023-04-29T02:14:28.834Z,14.70
2023-04-29T02:16:56.305Z,14.90
2023-04-29T02:19:26.939Z,16.23
2023-04-29T02:21:57.156Z,14.77
2023-04-29T02:24:44.064Z,15.60
2023-04-29T02:27:17.196Z,15.17
2023-04-29T02:29:44.086Z,15.23
2023-04-29T02:32:11.076Z,15.07
2023-04-29T02:34:38.417Z,16.03
2023-04-29T02:37:05.357Z,15.60
2023-04-29T02:39:32.254Z,15.67
2023-04-29T02:41:59.239Z,16.63
2023-04-29T02:44:26.166Z,16.70
2023-04-29T02:46:53.201Z,15.90
2023-04-29T02:49:20.178Z,17.90
2023-04-29T02:51:49.598Z,17.53
2023-04-29T02:54:17.243Z,17.40
2023-04-29T02:56:44.237Z,18.90
2023-04-29T02:59:11.157Z,17.20
2023-04-29T03:01:38.837Z,18.00
2023-04-29T03:04:06.867Z,18.53
2023-04-29T03:06:34.123Z,18.70
2023-04-29T03:09:01.156Z,20.47
2023-04-29T03:11:28.970Z,18.93
2023-04-29T03:13:56.351Z,17.70
2023-04-29T03:16:23.646Z,21.17
2023-04-29T03:18:50.520Z,20.00
2023-04-29T03:21:17.641Z,20.37
2023-04-29T03:23:44.844Z,21.07
2023-04-29T03:26:12.100Z,20.93
2023-04-29T03:28:38.989Z,22.50
2023-04-29T03:31:05.883Z,20.80
2023-04-29T03:33:32.805Z,20.30
2023-04-29T03:35:59.763Z,21.30
2023-04-29T03:38:26.761Z,22.17
2023-04-29T03:40:53.777Z,22.00
2023-04-29T03:43:20.760Z,20.17
2023-04-29T03:45:47.728Z,22.67
2023-04-29T03:48:14.764Z,21.33
2023-04-29T03:50:41.708Z,21.53
2023-04-29T03:53:08.666Z,23.17
2023-04-29T03:55:35.931Z,21.33
2023-04-29T03:58:02.821Z,21.97
2023-04-29T04:00:31.476Z,23.73
2023-04-29T04:02:59.136Z,23.80
2023-04-29T04:05:26.835Z,23.60
2023-04-29T04:07:53.984Z,22.93
2023-04-29T04:10:20.939Z,24.23
2023-04-29T04:12:47.859Z,24.27
2023-04-29T04:15:15.253Z,24.17
2023-04-29T04:17:42.186Z,23.83
2023-04-29T04:20:09.739Z,25.33
2023-04-29T04:22:36.757Z,25.13
2023-04-29T04:25:04.617Z,24.67
2023-04-29T04:27:31.500Z,26.30
2023-04-29T04:29:58.434Z,26.47
2023-04-29T04:32:25.364Z,26.33
2023-04-29T04:34:52.251Z,25.23
2023-04-29T04:37:19.128Z,23.13
2023-04-29T04:39:46.168Z,26.27
2023-04-29T04:42:13.075Z,27.37
2023-04-29T04:44:39.931Z,25.80
2023-04-29T04:47:06.794Z,25.93
2023-04-29T04:49:33.666Z,25.50
2023-04-29T04:52:00.954Z,23.87
2023-04-29T04:54:27.883Z,24.37
2023-04-29T04:56:55.330Z,25.00
2023-04-29T04:59:22.200Z,25.70
2023-04-29T05:01:49.140Z,26.77
2023-04-29T05:04:16.187Z,25.30
2023-04-29T05:06:43.319Z,26.60
2023-04-29T05:09:10.276Z,25.40
2023-04-29T05:11:37.791Z,25.80
2023-04-29T05:14:05.041Z,26.50
2023-04-29T05:16:32.004Z,26.27
2023-04-29T05:18:58.945Z,24.33
2023-04-29T05:21:25.956Z,27.53
2023-04-29T05:23:52.943Z,25.53
2023-04-29T05:26:20.024Z,27.73
2023-04-29T05:28:47.009Z,26.13
2023-04-29T05:31:14.017Z,25.80
2023-04-29T05:33:41.306Z,26.70
2023-04-29T05:36:08.467Z,27.00
2023-04-29T05:38:35.586Z,25.93
2023-04-29T05:41:03.667Z,25.57
2023-04-29T05:43:30.604Z,25.30
2023-04-29T05:45:57.597Z,24.60
2023-04-29T05:48:25.095Z,24.60
2023-04-29T05:50:52.278Z,25.80
2023-04-29T05:53:19.199Z,26.73
2023-04-29T05:55:46.944Z,25.13
2023-04-29T05:58:15.211Z,25.57
2023-04-29T06:00:43.757Z,26.10
2023-04-29T06:03:12.063Z,25.73
2023-04-29T06:05:39.626Z,24.93
2023-04-29T06:08:07.053Z,26.57
2023-04-29T06:10:34.387Z,25.23
2023-04-29T06:13:01.266Z,24.63
2023-04-29T06:15:28.395Z,24.77
2023-04-29T06:17:55.598Z,25.30
2023-04-29T06:20:22.641Z,25.80
2023-04-29T06:22:49.499Z,24.43
2023-04-29T06:25:16.604Z,26.00
2023-04-29T06:27:43.458Z,25.13
2023-04-29T06:30:11.868Z,25.70
2023-04-29T06:32:40.017Z,24.63
2023-04-29T06:35:07.621Z,22.87
2023-04-29T06:37:36.445Z,26.00
2023-04-29T06:40:06.106Z,24.70
2023-04-29T06:42:33.017Z,22.13
2023-04-29T06:45:00.369Z,21.80
2023-04-29T06:47:27.757Z,21.30
2023-04-29T06:49:55.006Z,20.83
2023-04-29T06:52:22.105Z,19.67
2023-04-29T06:54:48.969Z,19.87
2023-04-29T06:57:15.862Z,20.30
2023-04-29T06:59:42.778Z,19.57
2023-04-29T07:02:09.620Z,19.20
2023-04-29T07:04:37.574Z,18.60
2023-04-29T07:07:05.383Z,25.60
2023-04-29T07:09:32.272Z,21.93
2023-04-29T07:11:59.900Z,18.67
2023-04-29T07:14:26.767Z,24.13
2023-04-29T07:16:55.142Z,34.67
2023-04-29T07:19:22.354Z,17.53
2023-04-29T07:21:49.284Z,17.53
2023-04-29T07:24:16.230Z,17.70
2023-04-29T07:26:47.467Z,18.90
2023-04-29T07:29:14.408Z,19.17
2023-04-29T07:31:41.521Z,18.97
2023-04-29T07:34:08.521Z,20.07
2023-04-29T07:36:35.532Z,19.30
2023-04-29T07:39:02.679Z,17.90
2023-04-29T07:41:29.562Z,18.57
2023-04-29T07:43:56.463Z,20.03
2023-04-29T07:46:23.553Z,19.93
2023-04-29T07:48:50.635Z,19.63
2023-04-29T07:51:17.622Z,18.63
2023-04-29T07:53:44.581Z,17.83
2023-04-29T07:56:11.496Z,17.33
2023-04-29T07:58:38.448Z,17.23
2023-04-29T08:01:10.172Z,17.67
2023-04-29T08:03:40.504Z,16.30
2023-04-29T08:06:08.571Z,17.37
2023-04-29T08:08:35.704Z,15.83
2023-04-29T08:11:02.612Z,16.30
2023-04-29T08:13:29.541Z,16.43
2023-04-29T08:15:56.519Z,16.73
2023-04-29T08:18:23.529Z,21.33
2023-04-29T08:20:51.156Z,13.87
2023-04-29T08:23:18.053Z,14.00
2023-04-29T08:25:45.801Z,12.97
2023-04-29T08:28:13.012Z,13.20
2023-04-29T08:30:41.670Z,13.33
2023-04-29T08:33:09.016Z,12.17
2023-04-29T08:35:39.422Z,14.00
2023-04-29T08:38:07.040Z,13.10
2023-04-29T08:40:43.480Z,13.57
2023-04-29T08:43:11.267Z,13.90
2023-04-29T08:45:39.781Z,13.70
2023-04-29T08:48:10.141Z,14.43
2023-04-29T08:50:42.554Z,12.80
2023-04-29T08:53:14.604Z,13.33
2023-04-29T08:55:47.070Z,14.17
2023-04-29T08:58:16.230Z,13.77
2023-04-29T09:00:44.770Z,13.80
2023-04-29T09:03:28.102Z,14.93
2023-04-29T09:05:56.823Z,13.50
2023-04-29T09:08:27.819Z,13.70
2023-04-29T09:10:55.254Z,22.67
2023-04-29T09:13:30.989Z,23.27
2023-04-29T09:15:58.434Z,15.13
2023-04-29T09:18:46.238Z,15.70
2023-04-29T09:21:22.949Z,15.83
2023-04-29T09:23:58.437Z,15.93
2023-04-29T09:26:28.662Z,16.20
2023-04-29T09:29:18.164Z,17.60
2023-04-29T09:31:46.153Z,17.10
2023-04-29T09:34:14.214Z,18.00
2023-04-29T09:36:56.789Z,17.40
2023-04-29T09:39:25.448Z,18.10
2023-04-29T09:41:55.296Z,19.50
2023-04-29T09:44:29.503Z,20.50
2023-04-29T09:47:03.168Z,22.87
2023-04-29T09:49:50.039Z,21.47
2023-04-29T09:52:18.786Z,18.57
2023-04-29T09:54:45.721Z,21.43
2023-04-29T09:57:16.536Z,23.03
2023-04-29T09:59:43.540Z,24.20
2023-04-29T10:02:18.691Z,25.40
2023-04-29T10:04:48.357Z,26.10
2023-04-29T10:07:17.194Z,29.53
2023-04-29T10:09:48.196Z,27.80
2023-04-29T10:12:18.812Z,29.87
2023-04-29T10:15:16.127Z,33.23
2023-04-29T10:18:38.373Z,33.53
2023-04-29T10:21:09.711Z,33.80
2023-04-29T10:23:38.001Z,33.40
2023-04-29T10:26:07.210Z,34.47
2023-04-29T10:28:34.952Z,30.50
2023-04-29T10:31:05.681Z,34.03
2023-04-29T10:33:36.562Z,34.80
2023-04-29T10:36:04.532Z,36.57
2023-04-29T10:38:46.481Z,32.50
2023-04-29T10:41:27.137Z,33.50
2023-04-29T10:43:55.259Z,32.67
2023-04-29T10:46:24.455Z,30.70
2023-04-29T10:48:57.774Z,28.90
2023-04-29T10:51:34.196Z,28.20
2023-04-29T10:54:06.477Z,30.40
2023-04-29T10:56:42.024Z,29.43
2023-04-29T10:59:14.590Z,29.17
2023-04-29T11:01:47.011Z,45.10
2023-04-29T11:04:15.146Z,36.37
2023-04-29T11:06:48.461Z,26.10
2023-04-29T11:09:28.444Z,25.50
2023-04-29T11:12:09.531Z,24.83
2023-04-29T11:14:49.852Z,25.33
2023-04-29T11:17:20.350Z,24.13
2023-04-29T11:19:50.757Z,23.47
2023-04-29T11:22:24.135Z,21.93
2023-04-29T11:25:02.937Z,23.97
2023-04-29T11:27:34.905Z,22.57
2023-04-29T11:30:05.403Z,20.63
2023-04-29T11:32:40.738Z,20.77
2023-04-29T11:35:18.066Z,19.73
2023-04-29T11:37:46.976Z,19.50
2023-04-29T11:40:15.190Z,19.00
2023-04-29T11:42:47.891Z,19.70
2023-04-29T11:45:17.456Z,20.60
2023-04-29T11:47:46.919Z,17.30
2023-04-29T11:50:17.677Z,18.30
2023-04-29T11:52:46.668Z,23.40
2023-04-29T11:55:14.598Z,39.23
2023-04-29T11:57:41.743Z,16.23
2023-04-29T12:00:13.768Z,16.10
2023-04-29T12:02:46.379Z,16.57
2023-04-29T12:05:15.739Z,14.80
2023-04-29T12:07:43.358Z,15.70
2023-04-29T12:10:11.756Z,14.87
2023-04-29T12:12:41.347Z,14.17
2023-04-29T12:15:10.420Z,14.10
2023-04-29T12:17:38.419Z,15.40
2023-04-29T12:20:08.152Z,14.50
2023-04-29T12:22:35.694Z,15.57
2023-04-29T12:25:07.677Z,14.77
2023-04-29T12:27:41.571Z,14.37
2023-04-29T12:30:10.035Z,15.00
2023-04-29T12:32:37.375Z,14.20
2023-04-29T12:35:04.976Z,16.70
2023-04-29T12:37:32.114Z,14.13
2023-04-29T12:39:59.059Z,14.70
2023-04-29T12:42:34.382Z,14.27
2023-04-29T12:45:01.452Z,15.20
2023-04-29T12:47:37.169Z,14.30
2023-04-29T12:50:07.109Z,13.80
2023-04-29T12:52:36.439Z,12.63
2023-04-29T12:55:04.628Z,12.77
2023-04-29T12:57:31.573Z,12.33
2023-04-29T12:59:58.502Z,11.37
2023-04-29T13:04:53.208Z,14.60
2023-04-29T13:07:21.011Z,15.40
2023-04-29T13:09:47.931Z,9.70
2023-04-29T13:12:14.872Z,9.70
2023-04-29T13:14:41.707Z,9.67
2023-04-29T13:17:08.602Z,7.90
2023-04-29T13:19:50.666Z,8.23
2023-04-29T13:22:19.277Z,7.13
2023-04-29T13:24:46.885Z,6.70
2023-04-29T13:27:13.883Z,6.70
2023-04-29T13:29:40.795Z,6.80
2023-04-29T13:32:08.925Z,5.97
2023-04-29T13:34:36.095Z,6.20
2023-04-29T13:37:03.163Z,5.47
2023-04-29T13:39:30.164Z,6.63
2023-04-29T13:41:59.205Z,4.50
2023-04-29T13:44:33.284Z,5.50
2023-04-29T13:47:07.703Z,5.30
2023-04-29T13:50:09.923Z,5.73
2023-04-29T13:55:14.959Z,6.10
2023-04-29T13:58:31.296Z,5.80
2023-04-29T14:01:01.342Z,7.73
2023-04-29T14:03:12.850Z,6.90
2023-04-29T14:05:40.094Z,7.87
2023-04-29T14:08:07.282Z,7.60
2023-04-29T14:10:34.578Z,8.33
2023-04-29T14:13:01.484Z,30.33
2023-04-29T14:15:28.373Z,20.73
2023-04-29T14:17:55.594Z,20.40
2023-04-29T14:20:22.631Z,8.70
2023-04-29T14:22:49.602Z,7.43
2023-04-29T14:25:16.581Z,8.63
2023-04-29T14:27:43.484Z,6.87
2023-04-29T14:30:11.548Z,7.87
2023-04-29T14:32:38.535Z,8.40
2023-04-29T14:35:06.334Z,7.63
2023-04-29T14:37:33.237Z,8.00
2023-04-29T14:40:00.149Z,7.57
2023-04-29T14:42:27.291Z,7.60
2023-04-29T14:44:54.565Z,8.47
2023-04-29T14:47:21.875Z,7.40
2023-04-29T14:49:48.978Z,7.87
2023-04-29T14:52:16.141Z,6.63
2023-04-29T14:54:43.016Z,7.10
2023-04-29T14:57:10.779Z,6.40
2023-04-29T14:59:37.654Z,7.03
2023-04-29T15:02:04.609Z,6.10
2023-04-29T15:04:31.755Z,7.37
2023-04-29T15:06:58.777Z,6.43
2023-04-29T15:09:26.842Z,5.50
2023-04-29T15:11:53.770Z,6.70
2023-04-29T15:14:20.623Z,5.23
2023-04-29T15:16:48.788Z,17.70
2023-04-29T15:19:15.852Z,13.80
2023-04-29T15:21:42.761Z,5.57
2023-04-29T15:24:09.641Z,6.30
2023-04-29T15:26:36.533Z,6.37
2023-04-29T15:29:04.089Z,5.50
2023-04-29T15:31:31.105Z,5.13
2023-04-29T15:33:58.089Z,5.87
2023-04-29T15:36:35.014Z,6.60
2023-04-29T15:39:01.882Z,5.63
2023-04-29T15:41:28.797Z,5.73
2023-04-29T15:43:57.991Z,5.80
2023-04-29T15:46:24.926Z,5.40
2023-04-29T15:48:51.846Z,7.30
2023-04-29T15:51:19.014Z,28.10
2023-04-29T15:53:45.908Z,7.40
2023-04-29T15:56:13.313Z,5.87
2023-04-29T15:58:40.210Z,5.67
2023-04-29T16:01:07.222Z,6.40
2023-04-29T16:03:34.743Z,7.90
2023-04-29T16:06:01.791Z,7.30
2023-04-29T16:08:28.736Z,8.40
2023-04-29T16:10:56.091Z,7.13
2023-04-29T16:13:23.009Z,7.40
2023-04-29T16:15:49.947Z,6.37
2023-04-29T16:18:17.882Z,6.40
2023-04-29T16:20:45.516Z,6.80
2023-04-29T16:23:12.465Z,8.90
2023-04-29T16:25:41.539Z,7.00
2023-04-29T16:28:08.853Z,7.73
2023-04-29T16:30:36.375Z,7.40
2023-04-29T16:33:03.380Z,7.03
2023-04-29T16:35:31.046Z,6.20
2023-04-29T16:37:58.170Z,8.00
2023-04-29T16:40:25.254Z,7.00
2023-04-29T16:42:53.389Z,7.17
2023-04-29T16:45:23.110Z,7.60
2023-04-29T16:47:50.856Z,6.80
2023-04-29T16:50:18.137Z,7.67
2023-04-29T16:52:45.100Z,7.30
2023-04-29T16:55:15.257Z,6.60
2023-04-29T16:57:42.362Z,7.30
2023-04-29T17:00:13.027Z,7.77
2023-04-29T17:02:40.481Z,6.00
2023-04-29T17:05:09.024Z,5.50
2023-04-29T17:07:36.019Z,5.40
2023-04-29T17:10:03.025Z,5.20
2023-04-29T17:12:29.916Z,4.30
2023-04-29T17:14:57.109Z,25.43
2023-04-29T17:17:24.017Z,13.07
2023-04-29T17:19:51.641Z,7.57
2023-04-29T17:22:19.877Z,4.20
2023-04-29T17:24:47.014Z,4.60
2023-04-29T17:27:14.118Z,3.80
2023-04-29T17:29:41.064Z,4.23
2023-04-29T17:32:13.102Z,3.60
2023-04-29T17:34:40.089Z,3.97
2023-04-29T17:37:08.365Z,3.57
2023-04-29T17:39:35.721Z,3.80
2023-04-29T17:42:02.633Z,3.27
2023-04-29T17:44:29.636Z,5.90
2023-04-29T17:46:56.570Z,3.83
2023-04-29T17:49:23.462Z,5.03
2023-04-29T17:51:52.531Z,4.57
2023-04-29T17:54:19.484Z,4.53
2023-04-29T17:56:46.381Z,4.00
2023-04-29T17:59:13.316Z,4.17
2023-04-29T18:01:40.453Z,3.63
2023-04-29T18:04:07.673Z,3.33
2023-04-29T18:06:34.934Z,6.03
2023-04-29T18:09:01.928Z,3.67
2023-04-29T18:11:29.157Z,3.30
2023-04-29T18:13:56.154Z,3.23
2023-04-29T18:16:23.177Z,3.73
2023-04-29T18:18:56.606Z,3.53
2023-04-29T18:21:25.688Z,3.23
2023-04-29T18:23:53.151Z,3.47
2023-04-29T18:26:20.705Z,2.83
2023-04-29T18:28:48.183Z,3.90
2023-04-29T18:31:19.677Z,3.67
2023-04-29T18:33:46.705Z,3.60
2023-04-29T18:36:14.322Z,3.33
2023-04-29T18:38:41.485Z,3.87
2023-04-29T18:41:08.631Z,3.90
2023-04-29T18:43:35.639Z,4.03
2023-04-29T18:46:03.071Z,3.97
2023-04-29T18:48:30.825Z,4.00
2023-04-29T18:51:00.244Z,3.97
2023-04-29T18:53:27.120Z,3.87
2023-04-29T18:55:54.041Z,3.67
2023-04-29T18:58:21.401Z,4.43
2023-04-29T19:00:48.763Z,4.50
2023-04-29T19:03:15.905Z,5.00
2023-04-29T19:05:43.276Z,4.20
2023-04-29T19:08:10.192Z,4.30
2023-04-29T19:10:37.074Z,3.43
2023-04-29T19:13:04.063Z,4.37
2023-04-29T19:15:32.002Z,3.70
2023-04-29T19:17:59.037Z,3.90
2023-04-29T19:20:26.973Z,5.43
2023-04-29T19:22:53.912Z,3.97
2023-04-29T19:25:21.691Z,3.50
2023-04-29T19:27:51.127Z,5.27
2023-04-29T19:30:18.404Z,6.13
2023-04-29T19:32:46.879Z,4.03
2023-04-29T19:35:13.942Z,6.50
2023-04-29T19:37:41.065Z,4.27
2023-04-29T19:40:10.906Z,4.67
2023-04-29T19:42:39.156Z,4.13
2023-04-29T19:45:07.770Z,5.47
2023-04-29T19:47:36.217Z,5.30
2023-04-29T19:50:04.124Z,7.17
2023-04-29T19:52:31.085Z,6.40
2023-04-29T19:54:58.025Z,4.30
2023-04-29T19:57:25.094Z,5.23
2023-04-29T19:59:52.191Z,22.13
2023-04-29T20:02:19.656Z,16.47
2023-04-29T20:04:46.713Z,6.70
2023-04-29T20:07:13.623Z,5.03
2023-04-29T20:09:40.611Z,3.90
2023-04-29T20:12:07.553Z,4.30
2023-04-29T20:14:34.462Z,4.50
2023-04-29T20:17:01.568Z,4.30
2023-04-29T20:19:28.613Z,4.17
2023-04-29T20:21:55.454Z,4.60
2023-04-29T20:24:22.344Z,4.40
2023-04-29T20:26:49.307Z,5.90
2023-04-29T20:29:16.177Z,4.27
2023-04-29T20:31:43.741Z,4.40
2023-04-29T20:34:11.123Z,4.10
2023-04-29T20:36:38.464Z,4.33
2023-04-29T20:39:06.840Z,3.77
2023-04-29T20:41:33.758Z,4.30
2023-04-29T20:44:00.692Z,4.17
2023-04-29T20:46:27.652Z,3.50
2023-04-29T20:48:54.596Z,4.43
2023-04-29T20:51:21.448Z,4.13
2023-04-29T20:53:48.767Z,4.43
2023-04-29T20:56:16.163Z,4.83
2023-04-29T20:58:42.998Z,4.50
2023-04-29T21:01:09.915Z,4.27
2023-04-29T21:03:36.753Z,16.50
2023-04-29T21:06:03.849Z,11.97
2023-04-29T21:08:30.744Z,11.10
2023-04-29T21:10:57.728Z,8.50
2023-04-29T21:13:24.578Z,10.10
2023-04-29T21:15:51.509Z,6.00
2023-04-29T21:18:18.805Z,4.63
2023-04-29T21:20:46.230Z,4.80
2023-04-29T21:23:13.139Z,5.10
2023-04-29T21:25:40.062Z,5.03
2023-04-29T21:28:06.895Z,4.37
2023-04-29T21:30:33.761Z,4.97
2023-04-29T21:33:00.947Z,6.40
2023-04-29T21:35:28.082Z,5.30
2023-04-29T21:37:56.240Z,5.73
2023-04-29T21:40:23.787Z,5.60
2023-04-29T21:42:51.117Z,6.00
2023-04-29T21:45:18.211Z,6.10
2023-04-29T21:47:45.475Z,5.70
2023-04-29T21:50:12.497Z,5.47
2023-04-29T21:52:39.486Z,5.57
2023-04-29T21:55:07.173Z,6.37
2023-04-29T21:57:43.798Z,5.23
2023-04-29T22:00:30.883Z,5.53
2023-04-29T22:02:58.096Z,6.20
2023-04-29T22:05:25.284Z,6.03
2023-04-29T22:07:52.225Z,5.30
2023-04-29T22:10:19.140Z,5.47
2023-04-29T22:12:46.027Z,5.53
2023-04-29T22:15:20.961Z,5.33
2023-04-29T22:17:54.844Z,4.73
2023-04-29T22:20:21.811Z,5.47
2023-04-29T22:22:48.867Z,4.60
2023-04-29T22:25:15.815Z,5.80
2023-04-29T22:27:42.666Z,5.20
2023-04-29T22:30:10.084Z,4.93
2023-04-29T22:32:37.011Z,5.23
2023-04-29T22:35:04.395Z,4.80
2023-04-29T22:37:31.420Z,5.43
2023-04-29T22:39:58.368Z,4.97
2023-04-29T22:42:25.248Z,4.40
2023-04-29T22:44:52.119Z,4.97
2023-04-29T22:47:18.995Z,4.77
2023-04-29T22:49:46.408Z,3.93
2023-04-29T22:52:13.310Z,3.97
2023-04-29T22:54:40.263Z,4.00
2023-04-29T22:57:07.452Z,3.57
2023-04-29T22:59:34.387Z,3.00
2023-04-29T23:02:01.315Z,3.00
2023-04-29T23:04:28.352Z,3.40
2023-04-29T23:06:55.498Z,3.87
2023-04-29T23:09:22.536Z,3.43
2023-04-29T23:11:49.433Z,3.20
2023-04-29T23:14:16.513Z,2.70
2023-04-29T23:16:43.418Z,3.30
2023-04-29T23:19:10.442Z,3.23
2023-04-29T23:21:37.339Z,3.00
2023-04-29T23:24:04.900Z,2.63
2023-04-29T23:26:31.760Z,2.60
2023-04-29T23:28:58.648Z,2.47
2023-04-29T23:31:25.963Z,2.00
2023-04-29T23:33:52.997Z,2.33
2023-04-29T23:36:20.005Z,2.30
2023-04-29T23:38:47.143Z,2.53
2023-04-29T23:41:14.172Z,2.23
2023-04-29T23:43:41.585Z,2.10
2023-04-29T23:46:09.081Z,3.30
2023-04-29T23:48:36.548Z,2.17
2023-04-29T23:51:03.447Z,2.40
2023-04-29T23:53:30.574Z,3.00
2023-04-29T23:55:57.417Z,2.80
2023-04-29T23:58:24.275Z,2.70
